Flight Track Log - Related Links

Times and Time Zones

All times are in EDT time to prevent confusion due to time zone crossing. See the DAL268 flight status page for this flight to view local times or setup timezone preferences in your user account.

Time Position Orientation Groundspeed Altitude Reporting Facility
EDT Latitude Longitude Course Direction KTS MPH feet Rate Location/Type
Mon 06:22:58 PM 33.6094 -84.5378 64° Northeast 443 510 4,100  Level Atlanta Center
Mon 06:23:43 PM 33.5667 -84.5833 222° Southwest 262 302 6,200 2,300 Climbing Atlanta TRACON
Mon 06:24:00 PM 33.7145 -84.0199 101° East  Level FlightAware Approximate
Mon 06:25:00 PM 33.6922 -83.8859 101° East  Level FlightAware Approximate
Mon 06:25:58 PM 33.4489 -84.4969 149° Southeast 264 304 11,000  Level Atlanta Center
Mon 06:26:00 PM 33.6698 -83.7519 101° East  Level FlightAware Approximate
Mon 06:26:58 PM 33.4556 -84.3750 86° East 315 362 12,000  Level Atlanta Center
Mon 06:27:00 PM 33.6558 -83.6192 64° Northeast  Level FlightAware Approximate
Mon 06:28:00 PM 33.7059 -83.4965 64° Northeast  Level FlightAware Approximate
Mon 06:30:00 PM 33.6144 -84.1734 47° Northeast  Level Estimated
Mon 06:31:58 PM 33.6497 -83.6969 47° Northeast 444 511 21,800  Level Atlanta Center
Mon 06:32:58 PM 33.6953 -83.5519 69° East 461 531 23,300 800 Climbing Atlanta Center
Mon 06:35:00 PM 33.7915 -83.2990 65° Northeast  Level FlightAware Approximate
Mon 06:36:58 PM 33.9214 -82.9950 63° Northeast 467 537 25,800  Level Atlanta Center
Mon 06:37:00 PM 34.1589 -83.4737 47° Northeast  Level Estimated
Mon 06:38:00 PM 33.9679 -82.8678 66° East  Level FlightAware Approximate
Mon 06:39:58 PM 34.0961 -82.5514 60° Northeast 486 559 30,300  Level Atlanta Center
Mon 06:40:58 PM 34.1508 -82.4122 65° Northeast 474 545 31,000 350 Climbing Atlanta Center
Mon 06:41:58 PM 34.2072 -82.2681 65° Northeast 469 540 31,000  Level Atlanta Center
Mon 06:42:00 PM 34.1269 -82.4484 63° Northeast  Level FlightAware Approximate
Mon 06:42:58 PM 34.2656 -82.1261 64° Northeast 469 540 31,000  Level Atlanta Center
Mon 06:43:58 PM 34.3364 -81.9886 58° Northeast 469 540 31,000  Level Atlanta Center
Mon 06:44:58 PM 34.4031 -81.8508 60° Northeast 475 547 31,000  Level Atlanta Center
Mon 06:45:00 PM 34.2604 -82.1285 60° Northeast  Level FlightAware Approximate
Mon 06:45:58 PM 34.4714 -81.7106 59° Northeast 475 547 31,000  Level Atlanta Center
Mon 06:46:58 PM 34.5417 -81.5750 58° Northeast 475 547 31,000  Level Atlanta Center
Mon 06:48:00 PM 34.5941 -81.4502 63° Northeast  Level FlightAware Approximate
Mon 06:48:58 PM 34.6778 -81.2983 63° Northeast 475 547 31,000  Level Atlanta Center
Mon 06:49:58 PM 34.7456 -81.1619 59° Northeast 475 547 31,000  Level Atlanta Center
Mon 06:50:58 PM 34.8131 -81.0206 60° Northeast 484 557 31,000  Level Atlanta Center
Mon 06:51:58 PM 34.8806 -80.8814 59° Northeast 479 551 31,000  Level Atlanta Center
Mon 06:53:00 PM 34.9398 -80.7558 60° Northeast  Level FlightAware Approximate
Mon 06:53:58 PM 35.0169 -80.5997 60° Northeast 474 545 31,000  Level Atlanta Center
Mon 06:54:58 PM 35.0858 -80.4547 60° Northeast 481 554 31,100  Climbing Atlanta Center
Mon 06:57:01 PM 35.2233 -80.1686 59° Northeast 472 543 31,000 -33 Descending Washington Center
Mon 06:58:01 PM 35.2892 -80.0272 60° Northeast 472 543 31,000  Level Washington Center
Mon 06:59:02 PM 35.3467 -79.8853 64° Northeast 467 537 31,000  Level Washington Center
Mon 07:00:03 PM 35.3814 -79.7292 75° East 467 537 31,000  Level Washington Center
Mon 07:01:01 PM 35.4094 -79.5778 77° East 462 532 31,000  Level Washington Center
Mon 07:02:03 PM 35.4422 -79.4086 77° East 462 532 31,000  Level Washington Center
Mon 07:03:00 PM 35.4717 -79.2672 76° East 467 537 31,000  Level Washington Center
Mon 07:04:01 PM 35.5033 -79.1131 76° East 467 537 31,000  Level Washington Center
Mon 07:05:02 PM 35.5369 -78.9614 75° East 467 537 31,000  Level Washington Center
Mon 07:06:03 PM 35.5806 -78.8125 70° East 467 537 31,000  Level Washington Center
Mon 07:07:00 PM 35.6369 -78.6589 66° East 462 532 31,000  Level Washington Center
Mon 07:08:02 PM 35.6886 -78.5125 66° East 452 520 31,000  Level Washington Center
Mon 07:09:02 PM 35.7378 -78.3736 66° East 452 520 31,000  Level Washington Center
Mon 07:10:03 PM 35.7889 -78.2294 66° East 447 514 31,000  Level Washington Center
Mon 07:11:00 PM 35.8400 -78.0878 66° East 447 514 31,000  Level Washington Center
Mon 07:12:01 PM 35.8889 -77.9481 67° East 452 520 31,000  Level Washington Center
Mon 07:13:01 PM 35.9417 -77.8061 65° Northeast 452 520 31,000  Level Washington Center
Mon 07:15:00 PM 36.0775 -77.5425 57° Northeast 452 520 31,000  Level Washington Center
Mon 07:16:01 PM 36.1458 -77.4439 49° Northeast 458 527 31,000  Level Washington Center
Mon 07:17:01 PM 36.2542 -77.3306 40° Northeast 458 527 31,000  Level Washington Center
Mon 07:18:02 PM 36.3578 -77.2272 39° Northeast 470 541 31,000  Level Washington Center
Mon 07:20:00 PM 36.5756 -77.0067 39° Northeast 477 549 31,000  Level Washington Center
Mon 07:21:01 PM 36.6767 -76.9022 40° Northeast 477 549 31,000  Level Washington Center
Mon 07:22:02 PM 36.7800 -76.7953 40° Northeast 477 549 31,000  Level Washington Center
Mon 07:24:00 PM 36.9803 -76.5878 40° Northeast 477 549 31,000  Level Washington Center
Mon 07:25:00 PM 37.0674 -76.5002 39° Northeast  Level FlightAware Approximate
Mon 07:26:02 PM 37.1800 -76.3817 39° Northeast 472 543 31,000  Level Washington Center
Mon 07:27:03 PM 37.2681 -76.2886 40° Northeast 466 536 31,000  Level Washington Center
Mon 07:29:02 PM 37.4756 -76.0786 39° Northeast 454 522 31,000  Level Washington Center
Mon 07:31:00 PM 37.6639 -75.8856 39° Northeast 454 522 31,000  Level Washington Center
Mon 07:33:02 PM 37.8603 -75.6758 40° Northeast 454 522 31,000  Level Washington Center
Mon 07:35:01 PM 38.0625 -75.4706 39° Northeast 454 522 31,000  Level Washington Center
Mon 07:37:00 PM 38.2958 -75.3139 28° Northeast 467 537 31,000  Level Washington Center
Mon 07:38:00 PM 38.4125 -75.2419 26° Northeast 467 537 31,000  Level Washington Center
Mon 07:39:01 PM 38.5308 -75.1644 27° Northeast 467 537 31,000  Level Washington Center
Mon 07:40:00 PM 38.6517 -75.0892 26° Northeast 467 537 31,000  Level Washington Center
Mon 07:41:01 PM 38.7700 -75.0139 26° Northeast 467 537 31,000  Level Washington Center
Mon 07:42:02 PM 38.8864 -74.9383 27° Northeast 467 537 31,000 -202 Level Washington Center
Mon 07:43:00 PM 39.0028 -74.8650 26° Northeast 467 537 30,600 -1,160 Descending Washington Center
Mon 07:44:01 PM 39.1169 -74.7783 30° Northeast 467 537 28,700 -1,934 Descending Washington Center
Mon 07:45:01 PM 39.2203 -74.6700 39° Northeast 478 550 26,700 -2,281 Descending Washington Center
Mon 07:46:02 PM 39.3214 -74.5614 40° Northeast 478 550 24,100 -2,469 Descending Washington Center
Mon 07:48:30 PM 39.5519 -74.3061 40° Northeast 436 502 18,100 -1,780 Descending New York Center
Mon 07:49:31 PM 39.6553 -74.1981 39° Northeast 417 480 17,900 -1,388 Descending New York Center
Mon 07:50:31 PM 39.7350 -74.1072 41° Northeast 396 456 15,300 -2,644 Descending New York Center
Mon 07:51:29 PM 39.8167 -74.0194 40° Northeast 391 450 12,700 -2,186 Descending New York Center
Mon 07:52:29 PM 39.8956 -73.9528 33° Northeast 381 438 11,000 -900 Descending New York Center
Mon 07:53:29 PM 39.9786 -73.8914 30° Northeast 353 406 10,900  Descending New York Center
Mon 07:54:31 PM 40.0592 -73.8381 27° Northeast 306 352 11,000 -400 Climbing New York Center
Mon 07:55:29 PM 40.1425 -73.8444 357° North 292 336 10,100 -1,151 Descending New York Center
Mon 07:55:44 PM 40.1667 -73.8500 350° North 298 343 9,600 -2,080 Descending New York TRACON
Mon 07:56:44 PM 40.2333 -73.8833 339° North 291 335 7,500 -2,000 Descending New York TRACON
Mon 07:57:29 PM 40.2883 -73.9244 330° Northwest 284 327 6,100 -1,755 Descending New York Center
Mon 07:58:30 PM 40.3497 -73.9656 333° Northwest 278 320 4,400 -1,156 Descending New York Center
Mon 07:59:44 PM 40.4333 -74.0000 343° North 227 261 3,500 -656 Descending New York TRACON
Mon 08:00:38 PM 40.4833 -74.0000 360° North 223 257 3,000 -556 Descending New York TRACON

Login

Don't have an account? Register now (free) for customized features, flight alerts, and more!